Portada
METAR-TAF:

METAR-TAF

Aeropuertos :

Aeropuerto Internacional de Kuwait

Ciudad de Kuwait, Kuwait

latitud: 29-13N, longitud: 047-59E, altitud: 55 m

Observación

El informe se hizo hace 34 minutos, a las 20:00 UTC
Viento 4 kt del noroeste
Temperatura 9°C
Humedad 53%
Presión 1022 hPa
Visibilidad 10 km o más
sin nubes por debajo de 1500 m y sin presencia de cumulonimbus.

METAR: OKBK 182000Z 31004KT CAVOK 09/M00 Q1022 NOSIG

Hora: 23:34 (20:34 UTC)

Pronóstico

El informe se hizo hace 3 horas y 49 minutos, a las 16:45 UTC
Pronóstico válido del 18 a las 18 UTC al 19 a las 24 UTC
Viento 10 kt del norte
Visibilidad: 6000 m
Cielo despejado

TAF: OKBK 181645Z 1818/1924 35010KT 6000 SKC

Observaciones y pronósticos meteorológicos de más de 4000 aeropuertos (mensajes METAR y TAF).

Los puntos amarillos y rojos representan las estaciones disponibles.

Ponga el ratón en el punto deseado para ver el nombre de la estación.

Haga clic para ver las observaciones y los pronósticos meteorológicos.

Para cambiar el mapa : haga clic en los botones verdes con una cruz de color negro para hacer un zoom, en el botón verde con un guión para alejar o en las flechas verdes para mapas adyacentes.


METAR-TAF: